Time;durP1;ratioP1;P1;durP2;ratioP2;P2;SDS_P1;SDS_P2;PMS_P1;PMS_P2;Temp;Humidity;BMP_temperature;BMP_pressure;BME280_temperature;BME280_humidity;BME280_pressure;Samples;Min_cycle;Max_cycle;Signal;HPM_P1;HPM_P2
2022/03/15 00:01:39;;;;;;;48.93;26.57;;;4.80;99.90;;;;;;5051843;28;20657;-88
2022/03/15 00:04:07;;;;;;;63.57;33.13;;;4.90;99.90;;;;;;5052181;28;20254;-87
2022/03/15 00:06:36;;;;;;;68.17;35.33;;;4.90;99.90;;;;;;5051995;28;20623;-86
2022/03/15 00:09:04;;;;;;;58.60;30.57;;;5.10;99.90;;;;;;5052235;28;20224;-85
2022/03/15 00:11:34;;;;;;;44.43;23.77;;;5.10;99.90;;;;;;5051649;28;20631;-87
2022/03/15 00:14:02;;;;;;;57.73;30.57;;;5.20;99.90;;;;;;5052290;28;20282;-84
2022/03/15 00:16:29;;;;;;;44.87;25.17;;;5.30;99.90;;;;;;5052362;28;20275;-87
2022/03/15 00:18:56;;;;;;;53.57;28.47;;;5.40;99.90;;;;;;5051849;28;20219;-88
2022/03/15 00:21:25;;;;;;;54.33;30.20;;;5.50;99.90;;;;;;5050130;28;20196;-86
2022/03/15 00:23:52;;;;;;;37.60;21.40;;;5.50;99.90;;;;;;5051501;28;20235;-88
2022/03/15 00:26:20;;;;;;;35.60;20.60;;;5.60;99.90;;;;;;5052171;28;20201;-87
2022/03/15 00:28:47;;;;;;;31.90;19.70;;;5.70;99.90;;;;;;5049032;28;20189;-88
2022/03/15 00:31:14;;;;;;;33.07;19.77;;;5.70;99.90;;;;;;5035599;28;20239;-86
2022/03/15 00:33:41;;;;;;;32.73;19.03;;;5.70;99.90;;;;;;5035948;28;20189;-86
2022/03/15 00:36:08;;;;;;;34.13;20.43;;;5.80;99.90;;;;;;5035776;28;20217;-88
2022/03/15 00:38:35;;;;;;;35.17;19.27;;;5.80;99.90;;;;;;5035995;28;20195;-86
2022/03/15 00:41:02;;;;;;;34.43;19.90;;;5.80;99.90;;;;;;5035552;28;20670;-88
2022/03/15 00:43:34;;;;;;;49.43;26.37;;;5.80;99.90;;;;;;5035652;28;20194;-86
2022/03/15 00:46:01;;;;;;;31.83;19.00;;;5.90;99.90;;;;;;5035562;28;20236;-87
2022/03/15 00:48:28;;;;;;;39.43;19.03;;;5.90;99.90;;;;;;5035288;28;20200;-86
2022/03/15 00:50:56;;;;;;;31.40;18.30;;;6.00;99.90;;;;;;5035363;28;20213;-87
2022/03/15 00:53:23;;;;;;;31.67;17.73;;;6.00;99.90;;;;;;5034981;28;20662;-87
2022/03/15 00:55:50;;;;;;;32.23;18.20;;;6.00;99.90;;;;;;5035313;28;20194;-88
2022/03/15 00:58:17;;;;;;;31.70;18.13;;;6.00;99.90;;;;;;5035449;28;20190;-86
2022/03/15 01:00:48;;;;;;;30.73;17.87;;;6.00;99.90;;;;;;5053418;28;20254;-87
2022/03/15 01:03:15;;;;;;;31.50;18.77;;;6.00;99.90;;;;;;5054813;28;20177;-88
2022/03/15 01:05:42;;;;;;;28.83;17.83;;;6.00;99.90;;;;;;5055214;28;20296;-87
2022/03/15 01:08:09;;;;;;;28.27;17.30;;;6.10;99.90;;;;;;5054809;28;20258;-87
2022/03/15 01:10:36;;;;;;;27.43;17.17;;;6.10;1.00;;;;;;5055264;28;20616;-87
2022/03/15 01:13:03;;;;;;;30.80;16.93;;;6.10;1.00;;;;;;5054536;28;20258;-87
2022/03/15 01:15:34;;;;;;;28.57;17.07;;;6.10;1.00;;;;;;5054580;28;20661;-86
2022/03/15 01:18:02;;;;;;;27.37;16.87;;;6.10;1.00;;;;;;5054765;28;20287;-88
2022/03/15 01:20:29;;;;;;;30.80;15.90;;;6.10;1.00;;;;;;5048615;28;20198;-87
2022/03/15 01:22:57;;;;;;;29.47;16.97;;;6.10;1.00;;;;;;5034199;28;20743;-88
2022/03/15 01:25:24;;;;;;;27.77;16.73;;;6.10;1.00;;;;;;5034759;28;20238;-87
2022/03/15 01:27:52;;;;;;;30.73;17.63;;;6.10;1.00;;;;;;5034536;28;20235;-87
2022/03/15 01:30:19;;;;;;;29.70;17.73;;;6.10;1.00;;;;;;5034485;28;20217;-87
2022/03/15 01:32:46;;;;;;;28.27;17.07;;;6.10;1.00;;;;;;5034593;28;20243;-87
2022/03/15 01:35:15;;;;;;;26.50;16.13;;;6.10;1.00;;;;;;5034500;28;20190;-87
2022/03/15 01:37:42;;;;;;;27.73;16.27;;;6.10;1.00;;;;;;5034147;28;20646;-87
2022/03/15 01:40:10;;;;;;;28.07;17.20;;;6.10;1.00;;;;;;5034457;28;20197;-87
2022/03/15 01:42:37;;;;;;;29.40;16.87;;;6.10;1.00;;;;;;5034014;28;20260;-87
2022/03/15 01:45:05;;;;;;;30.07;18.00;;;6.10;1.00;;;;;;5034295;28;20201;-86
2022/03/15 01:47:32;;;;;;;30.20;18.00;;;6.10;1.00;;;;;;5034010;28;20204;-86
2022/03/15 01:50:00;;;;;;;27.77;16.53;;;6.10;1.00;;;;;;5034228;28;20201;-86
2022/03/15 01:52:28;;;;;;;29.43;16.70;;;6.10;1.00;;;;;;5053803;28;20786;-86
2022/03/15 01:54:55;;;;;;;28.73;16.23;;;6.20;1.00;;;;;;5053764;28;20600;-86
2022/03/15 01:57:23;;;;;;;25.70;16.47;;;6.20;1.00;;;;;;5053665;28;20192;-87
2022/03/15 01:59:50;;;;;;;32.40;20.07;;;6.20;1.00;;;;;;5053472;28;20216;-88
2022/03/15 02:02:18;;;;;;;53.53;30.47;;;6.30;1.00;;;;;;5053944;28;20192;-86
2022/03/15 02:04:45;;;;;;;38.63;19.33;;;6.30;1.00;;;;;;5053534;28;20243;-86
2022/03/15 02:07:13;;;;;;;34.83;19.97;;;6.40;1.00;;;;;;5053789;28;20189;-87
2022/03/15 02:09:42;;;;;;;47.27;26.30;;;6.40;1.00;;;;;;5054051;28;20217;-88
2022/03/15 02:12:10;;;;;;;54.97;28.83;;;6.50;1.00;;;;;;5054004;28;20251;-88
2022/03/15 02:14:38;;;;;;;38.70;21.50;;;6.50;1.00;;;;;;5051707;28;20199;-87
2022/03/15 02:17:07;;;;;;;41.80;23.00;;;6.50;1.00;;;;;;5053597;28;20630;-87
2022/03/15 02:19:35;;;;;;;40.37;22.67;;;6.60;1.00;;;;;;5053636;28;20276;-87
2022/03/15 02:22:03;;;;;;;34.53;21.20;;;6.70;1.00;;;;;;5053632;28;20224;-87
2022/03/15 02:24:30;;;;;;;36.40;20.10;;;6.70;1.00;;;;;;5053642;28;20228;-88
2022/03/15 02:26:58;;;;;;;35.17;19.30;;;6.70;1.00;;;;;;5053192;28;20195;-88
2022/03/15 02:29:28;;;;;;;31.87;17.40;;;6.80;1.00;;;;;;5053171;28;20254;-87
2022/03/15 02:31:55;;;;;;;30.47;18.13;;;6.80;1.00;;;;;;5053424;28;20212;-88
2022/03/15 02:34:22;;;;;;;92.07;39.50;;;6.80;1.00;;;;;;5053400;28;20197;-87
2022/03/15 02:36:49;;;;;;;29.20;17.67;;;6.80;1.00;;;;;;5053303;28;20649;-87
2022/03/15 02:39:18;;;;;;;34.97;20.63;;;6.80;1.00;;;;;;5052873;28;20593;-87
2022/03/15 02:41:45;;;;;;;33.60;19.57;;;6.80;1.00;;;;;;5053080;28;20732;-87
2022/03/15 02:44:12;;;;;;;42.00;24.50;;;6.80;1.00;;;;;;5042542;28;20611;-87
2022/03/15 02:46:40;;;;;;;77.07;35.93;;;6.80;1.00;;;;;;5032914;28;20289;-87
2022/03/15 02:49:07;;;;;;;36.77;21.37;;;6.70;1.00;;;;;;5033276;28;20553;-86
2022/03/15 02:51:34;;;;;;;36.17;20.60;;;6.70;1.00;;;;;;5039169;28;20228;-86
2022/03/15 02:54:02;;;;;;;31.77;19.77;;;6.70;1.00;;;;;;5032813;28;20201;-86
2022/03/15 02:56:33;;;;;;;33.03;19.27;;;6.70;1.00;;;;;;5032941;28;20204;-86
2022/03/15 02:59:00;;;;;;;33.73;20.10;;;6.60;1.00;;;;;;5033226;28;20221;-86
2022/03/15 03:01:27;;;;;;;35.07;20.43;;;6.70;1.00;;;;;;5032965;28;20200;-85
2022/03/15 03:03:54;;;;;;;33.27;20.03;;;6.60;1.00;;;;;;5032488;28;20193;-87
2022/03/15 03:06:21;;;;;;;34.40;20.10;;;6.60;1.00;;;;;;5033025;28;20190;-87
2022/03/15 03:08:49;;;;;;;34.33;20.20;;;6.60;1.00;;;;;;5032802;28;20201;-86
2022/03/15 03:11:16;;;;;;;35.70;20.20;;;6.50;1.00;;;;;;5032887;28;20577;-86
2022/03/15 03:13:44;;;;;;;33.10;19.53;;;6.50;1.00;;;;;;5038551;28;20189;-86
2022/03/15 03:16:13;;;;;;;36.97;20.40;;;6.50;1.00;;;;;;5052643;28;20193;-86
2022/03/15 03:18:40;;;;;;;31.97;18.93;;;6.50;1.00;;;;;;5052186;28;20669;-87
2022/03/15 03:21:08;;;;;;;34.10;20.10;;;6.50;1.00;;;;;;5052347;28;20543;-88
2022/03/15 03:23:36;;;;;;;32.20;19.30;;;6.40;1.00;;;;;;5052204;28;20224;-88
2022/03/15 03:26:04;;;;;;;35.57;20.43;;;6.40;1.00;;;;;;5052331;28;20194;-88
2022/03/15 03:28:37;;;;;;;36.40;21.37;;;6.40;1.00;;;;;;5052544;28;20193;-88
2022/03/15 03:31:06;;;;;;;50.63;28.93;;;6.40;1.00;;;;;;5052554;28;20224;-88
2022/03/15 03:33:33;;;;;;;34.10;20.83;;;6.40;1.00;;;;;;5052356;28;20589;-87
2022/03/15 03:36:00;;;;;;;33.80;20.23;;;6.30;1.00;;;;;;5052365;28;20193;-87
2022/03/15 03:38:27;;;;;;;33.53;19.30;;;6.30;17.30;;;;;;5052465;28;20185;-88
2022/03/15 03:40:56;;;;;;;34.10;20.43;;;6.40;49.30;;;;;;5051908;28;20665;-88
2022/03/15 03:43:23;;;;;;;35.00;20.37;;;6.30;51.30;;;;;;5046085;28;20272;-87
2022/03/15 03:45:50;;;;;;;35.17;21.40;;;6.30;73.30;;;;;;5031942;28;20567;-86
2022/03/15 03:48:19;;;;;;;33.70;20.50;;;6.30;99.90;;;;;;5031707;28;20197;-87
2022/03/15 03:50:46;;;;;;;33.53;20.30;;;6.30;99.90;;;;;;5032440;28;20190;-87
2022/03/15 03:53:24;;;;;;;32.50;20.37;;;6.30;99.90;;;;;;5052406;28;20177;-89
2022/03/15 03:55:51;;;;;;;35.00;20.20;;;6.40;99.90;;;;;;5055587;28;20623;-89
2022/03/15 03:58:34;;;;;;;34.53;20.20;;;6.40;99.90;;;;;;5055474;28;20220;-90
2022/03/15 04:01:01;;;;;;;36.57;20.53;;;6.40;99.90;;;;;;5046375;28;20211;-87
2022/03/15 04:03:31;;;;;;;31.13;19.43;;;6.50;99.90;;;;;;5051719;28;20673;-87
2022/03/15 04:06:01;;;;;;;39.07;21.57;;;6.50;99.90;;;;;;5055553;28;20192;-87
2022/03/15 04:08:28;;;;;;;33.07;19.73;;;6.50;99.90;;;;;;5050387;28;20276;-87
2022/03/15 04:11:40;;;;;;;35.77;20.53;;;6.50;99.90;;;;;;5036090;28;20238;-87
2022/03/15 04:14:09;;;;;;;36.23;19.93;;;6.60;1.00;;;;;;5035674;28;20182;-88
2022/03/15 04:16:36;;;;;;;35.67;20.73;;;6.50;99.90;;;;;;5036058;28;20200;-87
2022/03/15 04:19:04;;;;;;;34.57;20.10;;;6.50;99.90;;;;;;5036110;28;20198;-88
2022/03/15 04:21:33;;;;;;;33.87;20.63;;;6.50;99.90;;;;;;5036156;28;20611;-88
2022/03/15 04:24:00;;;;;;;34.33;20.50;;;6.50;99.90;;;;;;5035743;28;20225;-87
2022/03/15 04:26:27;;;;;;;37.33;22.50;;;6.50;99.90;;;;;;5035864;28;20198;-87
2022/03/15 04:28:55;;;;;;;40.30;22.17;;;6.50;99.90;;;;;;5035593;28;20269;-86
2022/03/15 04:31:22;;;;;;;38.03;21.67;;;6.60;99.90;;;;;;5035769;28;20214;-86
2022/03/15 04:33:50;;;;;;;48.60;27.20;;;6.50;99.90;;;;;;5035799;28;20193;-87
2022/03/15 04:36:19;;;;;;;46.00;25.93;;;6.60;99.90;;;;;;5035308;28;20194;-87
2022/03/15 04:38:46;;;;;;;42.40;23.03;;;6.60;99.90;;;;;;5042417;28;20189;-86
2022/03/15 04:41:13;;;;;;;38.70;22.13;;;6.60;99.90;;;;;;5055431;28;20200;-88
2022/03/15 04:43:40;;;;;;;37.83;21.60;;;6.60;99.90;;;;;;5055394;28;20197;-88
2022/03/15 04:46:07;;;;;;;50.13;25.07;;;6.60;99.90;;;;;;5055552;28;20532;-88
2022/03/15 04:48:34;;;;;;;43.90;24.90;;;6.60;99.90;;;;;;5035430;28;20244;-86
2022/03/15 04:51:01;;;;;;;51.43;26.90;;;6.60;99.90;;;;;;5034986;28;20605;-87
2022/03/15 04:53:29;;;;;;;50.23;26.60;;;6.60;99.90;;;;;;5035064;28;20201;-87
2022/03/15 04:55:56;;;;;;;46.70;24.30;;;6.60;99.90;;;;;;5035259;28;20190;-87
2022/03/15 04:58:24;;;;;;;45.07;22.87;;;6.60;99.90;;;;;;5035542;28;20263;-87
2022/03/15 05:00:51;;;;;;;47.87;22.63;;;6.60;99.90;;;;;;5035427;28;20225;-88
2022/03/15 05:03:31;;;;;;;;;;;;;;;;;;;;;
2022/03/15 05:05:58;;;;;;;53.67;23.97;;;6.60;1.00;;;;;;5056217;28;20189;-87
2022/03/15 05:08:25;;;;;;;50.63;24.63;;;6.60;1.00;;;;;;5036996;28;20193;-87
2022/03/15 05:11:09;;;;;;;73.10;25.23;;;6.60;1.00;;;;;;5054920;28;20197;-88
2022/03/15 05:13:45;;;;;;;115.67;44.20;;;6.60;1.00;;;;;;5066691;28;20211;-88
2022/03/15 05:16:17;;;;;;;130.97;50.63;;;6.60;1.00;;;;;;5063703;28;20242;-85
2022/03/15 05:18:45;;;;;;;92.03;36.37;;;6.60;1.00;;;;;;5036121;28;20244;-88
2022/03/15 05:21:37;;;;;;;76.10;26.33;;;6.60;1.00;;;;;;5034870;28;20198;-88
2022/03/15 05:24:05;;;;;;;103.80;26.17;;;6.60;1.00;;;;;;5034624;28;20226;-87
2022/03/15 05:26:33;;;;;;;77.90;22.83;;;6.60;1.00;;;;;;5034964;28;20193;-87
2022/03/15 05:29:00;;;;;;;69.40;23.00;;;6.70;1.00;;;;;;5034632;28;20226;-87
2022/03/15 05:31:29;;;;;;;87.30;24.93;;;6.60;1.00;;;;;;5034514;28;20217;-86
2022/03/15 05:33:56;;;;;;;85.23;26.80;;;6.60;1.00;;;;;;5036151;28;20280;-86
2022/03/15 05:36:23;;;;;;;79.63;27.97;;;6.70;1.00;;;;;;5034687;28;20542;-84
2022/03/15 05:38:54;;;;;;;79.17;27.70;;;6.70;1.00;;;;;;5050555;28;20170;-88
2022/03/15 05:41:23;;;;;;;89.47;39.13;;;6.70;1.00;;;;;;5047457;28;20830;-85
2022/03/15 05:43:51;;;;;;;116.30;46.67;;;6.70;1.00;;;;;;5037296;28;20607;-85
2022/03/15 05:46:18;;;;;;;72.17;27.20;;;6.70;1.00;;;;;;5036964;28;20217;-85
2022/03/15 05:48:45;;;;;;;64.67;29.97;;;6.80;1.00;;;;;;5036535;28;20252;-85
2022/03/15 05:51:12;;;;;;;68.40;27.67;;;6.80;1.00;;;;;;5036452;28;20217;-86
2022/03/15 05:53:39;;;;;;;86.27;32.70;;;6.80;1.00;;;;;;5048762;28;20195;-83
2022/03/15 05:56:06;;;;;;;68.57;28.53;;;6.80;1.00;;;;;;5035648;28;20202;-86
2022/03/15 05:58:33;;;;;;;63.17;28.37;;;6.90;1.00;;;;;;5036655;28;20557;-87
2022/03/15 06:01:02;;;;;;;95.20;50.70;;;6.90;1.00;;;;;;5039971;28;20202;-86
2022/03/15 06:03:29;;;;;;;87.73;45.80;;;6.90;1.00;;;;;;5033578;28;20663;-88
2022/03/15 06:05:56;;;;;;;84.33;46.87;;;7.00;1.00;;;;;;5034215;28;20263;-86
2022/03/15 06:08:23;;;;;;;78.87;39.73;;;7.00;1.00;;;;;;5034071;28;20194;-86
2022/03/15 06:10:50;;;;;;;73.17;35.80;;;7.00;1.00;;;;;;5060329;28;20193;-88
2022/03/15 06:13:17;;;;;;;72.87;31.10;;;7.00;1.00;;;;;;5055397;28;20209;-88
2022/03/15 06:15:46;;;;;;;70.87;29.23;;;7.10;1.00;;;;;;5065009;28;20201;-85
2022/03/15 06:18:14;;;;;;;60.10;26.57;;;7.10;1.00;;;;;;5056386;28;20200;-88
2022/03/15 06:20:41;;;;;;;64.33;30.80;;;7.10;1.00;;;;;;5054969;28;20189;-88
2022/03/15 06:23:11;;;;;;;83.20;32.23;;;7.10;1.00;;;;;;5053343;28;20225;-87
2022/03/15 06:25:38;;;;;;;83.67;28.13;;;7.10;1.00;;;;;;5056900;28;20243;-87
2022/03/15 06:28:05;;;;;;;79.73;29.90;;;7.10;1.00;;;;;;5053067;28;20202;-86
2022/03/15 06:30:32;;;;;;;66.70;29.57;;;7.10;52.70;;;;;;5054497;28;20704;-87
2022/03/15 06:32:59;;;;;;;72.27;29.90;;;7.20;51.20;;;;;;5055866;28;20216;-86
2022/03/15 06:35:28;;;;;;;66.77;28.10;;;7.20;99.90;;;;;;5054146;28;20189;-87
2022/03/15 06:37:56;;;;;;;63.33;29.27;;;7.30;99.90;;;;;;5057671;28;20205;-88
2022/03/15 06:40:25;;;;;;;64.00;28.27;;;7.30;99.90;;;;;;5036141;28;20190;-88
2022/03/15 06:42:54;;;;;;;58.13;28.83;;;7.40;99.90;;;;;;5036144;28;20681;-87
2022/03/15 06:45:21;;;;;;;67.37;29.77;;;7.40;99.90;;;;;;5035598;28;20247;-86
2022/03/15 06:47:48;;;;;;;64.53;29.93;;;7.40;99.90;;;;;;5037796;28;20726;-88
2022/03/15 06:50:16;;;;;;;64.97;30.00;;;7.50;99.90;;;;;;5034350;28;20261;-88
2022/03/15 06:52:49;;;;;;;64.67;29.80;;;7.50;99.90;;;;;;5039137;28;20260;-87
2022/03/15 06:55:23;;;;;;;65.73;30.13;;;7.50;99.90;;;;;;5048575;28;20194;-89
2022/03/15 06:57:50;;;;;;;65.67;29.50;;;7.60;99.90;;;;;;5043717;28;20204;-86
2022/03/15 07:00:18;;;;;;;62.83;30.63;;;7.60;99.90;;;;;;5038380;28;20193;-89
2022/03/15 07:02:45;;;;;;;66.77;31.73;;;7.60;99.90;;;;;;5044945;28;20258;-87
2022/03/15 07:05:12;;;;;;;97.33;37.03;;;7.70;99.90;;;;;;5039548;28;20237;-87
2022/03/15 07:07:46;;;;;;;79.37;34.23;;;7.80;99.90;;;;;;5034489;28;20194;-87
2022/03/15 07:10:19;;;;;;;58.40;27.97;;;7.90;99.90;;;;;;5040676;28;20203;-86
2022/03/15 07:12:46;;;;;;;51.10;26.03;;;8.00;99.90;;;;;;5038781;28;20234;-86
2022/03/15 07:15:17;;;;;;;53.80;26.73;;;8.00;99.90;;;;;;5040167;28;20200;-88
2022/03/15 07:17:52;;;;;;;53.07;26.77;;;8.10;99.90;;;;;;5046141;28;20192;-87
2022/03/15 07:20:19;;;;;;;54.87;29.03;;;8.10;99.90;;;;;;5034470;28;20730;-92
2022/03/15 07:22:47;;;;;;;55.20;27.83;;;8.20;99.90;;;;;;5034507;28;20213;-93
2022/03/15 07:25:16;;;;;;;52.57;26.43;;;8.20;99.90;;;;;;5033325;28;20202;-90
2022/03/15 07:27:44;;;;;;;50.03;26.43;;;8.20;99.90;;;;;;5041238;28;20275;-91
2022/03/15 07:30:12;;;;;;;48.63;26.77;;;8.20;99.90;;;;;;5038275;28;20247;-92
2022/03/15 07:32:39;;;;;;;54.80;26.70;;;8.30;99.90;;;;;;5037652;28;20206;-92
2022/03/15 07:35:09;;;;;;;48.80;25.37;;;8.30;99.90;;;;;;5035609;28;20220;-91
2022/03/15 07:37:48;;;;;;;47.50;24.27;;;8.40;99.90;;;;;;5037903;28;20200;-91
2022/03/15 07:40:16;;;;;;;52.40;26.17;;;8.40;99.90;;;;;;5052243;28;20231;-89
2022/03/15 07:42:43;;;;;;;49.60;26.83;;;8.40;99.90;;;;;;5056671;28;20214;-89
2022/03/15 07:45:20;;;;;;;47.97;26.50;;;8.50;1.00;;;;;;5055606;28;20206;-91
2022/03/15 07:47:48;;;;;;;51.33;25.57;;;8.50;1.00;;;;;;5054504;28;20202;-89
2022/03/15 07:50:15;;;;;;;48.20;25.63;;;8.60;1.00;;;;;;5057638;28;20228;-90
2022/03/15 07:52:42;;;;;;;45.03;23.97;;;8.70;1.00;;;;;;5054511;28;20268;-90
2022/03/15 07:55:10;;;;;;;47.67;24.90;;;8.80;1.00;;;;;;5059301;28;20223;-89
2022/03/15 07:57:38;;;;;;;45.07;23.37;;;8.90;1.00;;;;;;5050112;28;20247;-93
2022/03/15 08:00:15;;;;;;;42.27;22.87;;;9.00;1.00;;;;;;5039107;28;20232;-93
2022/03/15 08:02:42;;;;;;;39.93;21.90;;;9.10;1.00;;;;;;5035241;28;20280;-89
2022/03/15 08:05:10;;;;;;;44.27;22.57;;;9.10;1.00;;;;;;5044727;28;20519;-88
2022/03/15 08:07:37;;;;;;;43.70;23.37;;;9.20;1.00;;;;;;5054879;28;20200;-86
2022/03/15 08:10:05;;;;;;;39.53;22.47;;;9.30;1.00;;;;;;5053128;28;20220;-87
2022/03/15 08:12:32;;;;;;;45.17;24.43;;;9.30;1.00;;;;;;5049236;28;20224;-88
2022/03/15 08:15:01;;;;;;;49.73;29.37;;;9.40;99.90;;;;;;5060824;28;20189;-87
2022/03/15 08:17:28;;;;;;;41.67;23.87;;;9.40;99.90;;;;;;5050395;28;20195;-89
2022/03/15 08:19:57;;;;;;;36.30;21.80;;;9.40;99.90;;;;;;5057551;28;20700;-88
2022/03/15 08:22:26;;;;;;;49.53;30.30;;;9.40;99.90;;;;;;5059692;28;20182;-88
2022/03/15 08:24:55;;;;;;;44.90;27.07;;;9.40;99.90;;;;;;5057389;28;20230;-90
2022/03/15 08:27:26;;;;;;;44.40;26.20;;;9.50;99.90;;;;;;5056477;28;20206;-86
2022/03/15 08:29:53;;;;;;;35.63;19.90;;;9.60;99.90;;;;;;5057822;28;20597;-88
2022/03/15 08:32:22;;;;;;;41.17;23.63;;;9.70;99.90;;;;;;5057980;28;20249;-88
2022/03/15 08:34:49;;;;;;;46.17;23.63;;;9.80;99.90;;;;;;5044666;28;20226;-87
2022/03/15 08:37:16;;;;;;;42.70;20.73;;;10.00;99.90;;;;;;5039549;28;20199;-89
2022/03/15 08:39:43;;;;;;;39.80;22.70;;;10.20;99.90;;;;;;5043068;28;20188;-87
2022/03/15 08:42:10;;;;;;;37.00;20.90;;;10.30;99.90;;;;;;5054213;28;20204;-86
2022/03/15 08:44:41;;;;;;;39.60;20.00;;;10.40;90.30;;;;;;5054207;28;20257;-88
2022/03/15 08:47:08;;;;;;;34.40;18.60;;;10.50;1.00;;;;;;5053360;28;20188;-86
2022/03/15 08:49:39;;;;;;;55.60;27.03;;;10.50;1.00;;;;;;5055554;28;20260;-91
2022/03/15 08:52:08;;;;;;;49.43;24.77;;;10.60;1.00;;;;;;5060888;28;20217;-86
2022/03/15 08:54:35;;;;;;;54.20;27.77;;;10.70;1.00;;;;;;5056643;28;20223;-85
2022/03/15 08:57:02;;;;;;;38.07;20.23;;;10.80;1.00;;;;;;5058660;28;20254;-88
2022/03/15 08:59:29;;;;;;;40.97;21.57;;;10.80;1.00;;;;;;5055468;28;20228;-87
2022/03/15 09:01:56;;;;;;;54.13;27.33;;;10.90;1.00;;;;;;5037300;28;20263;-88
2022/03/15 09:04:26;;;;;;;37.97;20.33;;;10.90;1.00;;;;;;5052729;28;20189;-90
2022/03/15 09:06:54;;;;;;;32.43;16.10;;;10.90;1.00;;;;;;5056089;28;20202;-87
2022/03/15 09:09:25;;;;;;;33.27;18.07;;;10.80;1.00;;;;;;5056431;28;20246;-90
2022/03/15 09:12:02;;;;;;;35.83;20.33;;;10.80;99.90;;;;;;5058647;28;20568;-87
2022/03/15 09:14:29;;;;;;;38.17;20.80;;;10.90;99.90;;;;;;5056945;28;20570;-89
2022/03/15 09:16:57;;;;;;;48.17;25.43;;;10.90;99.90;;;;;;5055716;28;20555;-87
2022/03/15 09:19:24;;;;;;;60.57;30.20;;;10.90;99.90;;;;;;5056632;28;20200;-87
2022/03/15 09:21:51;;;;;;;41.53;21.50;;;11.00;99.90;;;;;;5054826;28;20193;-88
2022/03/15 09:24:20;;;;;;;38.13;19.77;;;11.00;99.90;;;;;;5056093;28;20225;-87
2022/03/15 09:26:47;;;;;;;28.77;16.50;;;11.00;99.90;;;;;;5056301;28;20196;-89
2022/03/15 09:29:14;;;;;;;36.70;19.83;;;11.10;99.90;;;;;;5055978;28;20219;-87
2022/03/15 09:31:44;;;;;;;25.33;14.67;;;11.10;99.90;;;;;;5055928;28;20203;-87
2022/03/15 09:34:17;;;;;;;25.77;15.33;;;11.10;99.90;;;;;;5055562;28;20210;-90
2022/03/15 09:36:45;;;;;;;26.07;15.97;;;11.10;99.90;;;;;;5057043;28;20207;-88
2022/03/15 09:39:14;;;;;;;28.40;16.33;;;11.00;99.90;;;;;;5055696;28;20193;-87
2022/03/15 09:41:43;;;;;;;47.57;24.17;;;10.90;99.90;;;;;;5057906;28;20207;-88
2022/03/15 09:44:15;;;;;;;48.10;24.80;;;10.80;99.90;;;;;;5060470;28;20196;-88
2022/03/15 09:46:55;;;;;;;30.00;16.43;;;10.80;99.90;;;;;;5056149;28;20177;-86
2022/03/15 09:49:24;;;;;;;27.37;15.77;;;10.70;99.90;;;;;;5058544;28;20172;-86
2022/03/15 09:51:52;;;;;;;27.10;15.73;;;10.70;99.90;;;;;;5037974;28;20193;-86
2022/03/15 09:54:19;;;;;;;25.93;14.47;;;10.70;99.90;;;;;;5038793;28;20229;-86
2022/03/15 09:56:48;;;;;;;26.27;15.33;;;10.70;99.90;;;;;;5041007;28;20197;-90
2022/03/15 09:59:17;;;;;;;26.70;14.80;;;10.80;99.90;;;;;;5046291;28;20293;-89
2022/03/15 10:01:50;;;;;;;29.80;16.83;;;11.00;99.90;;;;;;5038864;28;20650;-89
2022/03/15 10:04:17;;;;;;;22.73;13.83;;;11.10;99.90;;;;;;5039867;28;20713;-86
2022/03/15 10:06:44;;;;;;;41.27;22.23;;;11.30;99.90;;;;;;5046707;28;20206;-87
2022/03/15 10:09:13;;;;;;;26.40;15.10;;;11.60;99.90;;;;;;5045010;28;20224;-91
2022/03/15 10:11:40;;;;;;;25.97;14.07;;;11.80;99.90;;;;;;5041520;28;20200;-86
2022/03/15 10:14:09;;;;;;;70.33;35.93;;;11.90;71.00;;;;;;5040006;28;20281;-87
2022/03/15 10:16:40;;;;;;;22.83;12.20;;;11.90;1.00;;;;;;5040124;28;20227;-87
2022/03/15 10:19:11;;;;;;;17.67;10.80;;;12.00;1.00;;;;;;5048682;28;20553;-89
2022/03/15 10:21:46;;;;;;;20.67;10.27;;;12.10;1.00;;;;;;5067626;28;20202;-91
2022/03/15 10:24:25;;;;;;;20.43;12.03;;;12.30;1.00;;;;;;5056473;28;20238;-89
2022/03/15 10:26:54;;;;;;;19.07;10.40;;;12.50;1.00;;;;;;5054906;28;20196;-88
2022/03/15 10:29:31;;;;;;;20.83;11.37;;;12.60;1.00;;;;;;5061586;28;20242;-88
2022/03/15 10:32:05;;;;;;;14.67;9.67;;;12.70;1.00;;;;;;5063937;28;20178;-88
2022/03/15 10:34:37;;;;;;;16.20;9.23;;;12.80;1.00;;;;;;5056548;28;20240;-89
2022/03/15 10:37:09;;;;;;;16.00;9.83;;;12.80;1.00;;;;;;5054322;28;20230;-88
2022/03/15 10:39:39;;;;;;;20.47;11.33;;;12.70;1.00;;;;;;5056831;28;20201;-87
2022/03/15 10:42:08;;;;;;;21.93;10.33;;;12.60;1.00;;;;;;5054870;28;20197;-86
2022/03/15 10:44:39;;;;;;;42.10;18.83;;;12.50;1.00;;;;;;5055614;28;20204;-86
2022/03/15 10:47:09;;;;;;;27.47;12.67;;;12.50;1.00;;;;;;5052837;28;20515;-87
2022/03/15 10:49:51;;;;;;;74.47;29.33;;;12.40;1.00;;;;;;5060406;28;20726;-92
2022/03/15 10:52:30;;;;;;;111.43;36.07;;;12.40;1.00;;;;;;5054877;28;20239;-86
2022/03/15 10:55:11;;;;;;;75.10;28.10;;;12.30;1.00;;;;;;5061245;28;20221;-89
2022/03/15 10:57:49;;;;;;;83.90;33.00;;;12.10;1.00;;;;;;5058366;28;20257;-87
2022/03/15 11:00:20;;;;;;;71.07;28.80;;;11.90;1.00;;;;;;5055444;28;20232;-86
2022/03/15 11:02:48;;;;;;;37.57;18.00;;;11.80;1.00;;;;;;5052933;28;20182;-84
2022/03/15 11:05:27;;;;;;;64.83;26.60;;;11.80;1.00;;;;;;5055262;28;20191;-86
2022/03/15 11:07:54;;;;;;;38.27;17.63;;;11.80;1.00;;;;;;5057834;28;20200;-86
2022/03/15 11:10:24;;;;;;;38.73;18.87;;;11.80;1.00;;;;;;5061247;28;20194;-90
2022/03/15 11:12:57;;;;;;;24.03;12.13;;;12.00;1.00;;;;;;5055318;28;20190;-86
2022/03/15 11:15:30;;;;;;;50.97;24.83;;;12.10;1.00;;;;;;5054167;28;20171;-86
2022/03/15 11:18:00;;;;;;;27.37;15.43;;;12.30;1.00;;;;;;5054772;28;20190;-87
2022/03/15 11:20:35;;;;;;;17.33;10.17;;;12.40;1.00;;;;;;5054711;28;20261;-87
2022/03/15 11:23:03;;;;;;;14.33;8.83;;;12.50;1.00;;;;;;5056748;28;20298;-88
2022/03/15 11:25:35;;;;;;;41.50;20.27;;;12.60;1.00;;;;;;5065192;28;20185;-89
2022/03/15 11:28:16;;;;;;;31.50;16.20;;;12.80;1.00;;;;;;5058717;28;20556;-90
2022/03/15 11:30:51;;;;;;;44.50;24.30;;;13.00;1.00;;;;;;5054064;28;20189;-86
2022/03/15 11:33:31;;;;;;;44.00;24.30;;;13.10;99.90;;;;;;5053128;28;20197;-85
2022/03/15 11:36:11;;;;;;;32.70;17.13;;;13.10;99.90;;;;;;5058230;28;20196;-87
2022/03/15 11:38:47;;;;;;;44.97;23.03;;;13.10;99.90;;;;;;5053632;28;20181;-88
2022/03/15 11:41:14;;;;;;;34.50;15.70;;;13.10;99.90;;;;;;5056761;28;20287;-86
2022/03/15 11:43:50;;;;;;;41.80;18.93;;;13.00;99.90;;;;;;5057468;28;20201;-88
2022/03/15 11:46:29;;;;;;;43.63;20.77;;;13.10;99.90;;;;;;5037161;28;20219;-88
2022/03/15 11:49:11;;;;;;;24.00;12.80;;;13.10;99.90;;;;;;5042528;28;20192;-87
2022/03/15 11:51:46;;;;;;;24.73;14.27;;;13.20;99.90;;;;;;5057450;28;20247;-86
2022/03/15 11:54:31;;;;;;;39.53;20.60;;;13.20;99.90;;;;;;5053949;28;20270;-88
2022/03/15 11:57:01;;;;;;;19.67;10.17;;;13.20;99.90;;;;;;5055299;28;20242;-87
2022/03/15 11:59:53;;;;;;;19.83;11.30;;;13.30;99.90;;;;;;5052655;28;20225;-88
2022/03/15 12:02:29;;;;;;;19.47;10.57;;;13.30;99.90;;;;;;5062190;28;20185;-86
2022/03/15 12:05:00;;;;;;;17.97;10.40;;;13.40;99.90;;;;;;5061310;28;20638;-89
2022/03/15 12:07:45;;;;;;;48.77;27.80;;;13.40;99.90;;;;;;5058802;28;20589;-88
2022/03/15 12:10:23;;;;;;;69.97;32.67;;;13.50;99.90;;;;;;5058743;28;20197;-87
2022/03/15 12:13:03;;;;;;;19.57;11.13;;;13.50;99.90;;;;;;5052377;28;20235;-87
2022/03/15 12:15:44;;;;;;;15.77;10.40;;;13.60;99.90;;;;;;5058121;28;20257;-87
2022/03/15 12:18:33;;;;;;;20.77;14.10;;;13.60;99.90;;;;;;5057618;28;20201;-86
2022/03/15 12:21:07;;;;;;;35.50;26.03;;;13.70;99.90;;;;;;5054436;28;20552;-86
2022/03/15 12:23:42;;;;;;;17.93;10.37;;;14.00;99.90;;;;;;5054377;28;20240;-86
2022/03/15 12:26:23;;;;;;;15.87;8.30;;;14.20;99.90;;;;;;5061996;28;20186;-85
2022/03/15 12:29:02;;;;;;;14.60;8.07;;;14.40;99.90;;;;;;5061750;28;20217;-87
2022/03/15 12:31:40;;;;;;;13.47;7.83;;;14.50;99.90;;;;;;5057871;28;20180;-86
2022/03/15 12:34:13;;;;;;;16.70;9.50;;;14.40;99.90;;;;;;5061795;28;20214;-85
2022/03/15 12:36:47;;;;;;;14.60;9.50;;;14.20;99.90;;;;;;5058564;28;20183;-86
2022/03/15 12:39:17;;;;;;;17.80;8.57;;;14.00;99.90;;;;;;5060615;28;20619;-85
2022/03/15 12:41:44;;;;;;;12.83;7.90;;;13.90;99.90;;;;;;5060651;28;20216;-86
2022/03/15 12:44:12;;;;;;;12.50;8.30;;;13.90;99.90;;;;;;5057220;28;20196;-84
2022/03/15 12:46:40;;;;;;;16.40;8.43;;;13.80;99.90;;;;;;5059883;28;20194;-87
2022/03/15 12:49:09;;;;;;;13.00;8.10;;;13.80;99.90;;;;;;5058358;28;20194;-86
2022/03/15 12:51:41;;;;;;;12.80;8.27;;;13.70;99.90;;;;;;5055435;28;20191;-87
2022/03/15 12:54:11;;;;;;;14.80;8.87;;;13.60;99.90;;;;;;5057857;28;20216;-87